createdAt,value
2019-03-26T00:00:17.221Z,-0.08
2019-03-26T00:01:16.272Z,-0.10
2019-03-26T00:02:16.582Z,-0.10
2019-03-26T00:03:16.861Z,-0.15
2019-03-26T00:04:17.171Z,-0.15
2019-03-26T00:05:16.459Z,-0.18
2019-03-26T00:06:16.786Z,-0.18
2019-03-26T00:07:17.102Z,-0.05
2019-03-26T00:08:16.402Z,-0.10
2019-03-26T00:09:16.690Z,-0.12
2019-03-26T00:10:16.984Z,-0.19
2019-03-26T00:11:17.048Z,-0.19
2019-03-26T00:12:16.359Z,-0.17
2019-03-26T00:13:16.670Z,-0.21
2019-03-26T00:14:16.977Z,-0.25
2019-03-26T00:15:16.292Z,-0.29
2019-03-26T00:16:16.591Z,-0.25
2019-03-26T00:17:16.873Z,-0.25
2019-03-26T00:18:17.163Z,-0.25
2019-03-26T00:19:16.496Z,-0.32
2019-03-26T00:20:16.851Z,-0.26
2019-03-26T00:21:16.855Z,-0.23
2019-03-26T00:22:17.139Z,-0.23
2019-03-26T00:23:16.459Z,-0.36
2019-03-26T00:24:16.737Z,-0.35
2019-03-26T00:25:17.034Z,-0.45
2019-03-26T00:26:16.333Z,-0.43
2019-03-26T00:27:16.649Z,-0.49
2019-03-26T00:28:16.953Z,-0.56
2019-03-26T00:29:16.287Z,-0.53
2019-03-26T00:30:16.618Z,-0.53
2019-03-26T00:31:16.643Z,-0.52
2019-03-26T00:32:16.950Z,-0.50
2019-03-26T00:33:16.239Z,-0.46
2019-03-26T00:34:19.365Z,-0.46
2019-03-26T00:35:17.267Z,-0.46
2019-03-26T00:36:16.562Z,-0.49
2019-03-26T00:37:16.849Z,-0.49
2019-03-26T00:38:17.167Z,-0.46
2019-03-26T00:39:16.492Z,-0.47
2019-03-26T00:40:16.809Z,-0.57
2019-03-26T00:41:16.856Z,-0.56
2019-03-26T00:42:17.173Z,-0.53
2019-03-26T00:43:16.497Z,-0.53
2019-03-26T00:44:16.827Z,-0.59
2019-03-26T00:45:17.123Z,-0.59
2019-03-26T00:46:16.405Z,-0.60
2019-03-26T00:47:16.711Z,-0.59
2019-03-26T00:48:17.011Z,-0.69
2019-03-26T00:49:16.313Z,-0.69
2019-03-26T00:50:16.621Z,-0.69
2019-03-26T00:51:16.708Z,-0.71
2019-03-26T00:52:17.012Z,-0.69
2019-03-26T00:53:16.301Z,-0.64
2019-03-26T00:54:16.610Z,-0.66
2019-03-26T00:55:22.259Z,-0.64
2019-03-26T00:56:16.559Z,-0.64
2019-03-26T00:57:16.864Z,-0.69
2019-03-26T00:58:17.181Z,-0.69
2019-03-26T00:59:16.538Z,-0.69
2019-03-26T01:00:16.867Z,-0.70
2019-03-26T01:01:16.900Z,-0.71
2019-03-26T01:02:17.207Z,-0.70
2019-03-26T01:03:16.505Z,-0.74
2019-03-26T01:04:16.841Z,-0.77
2019-03-26T01:05:17.128Z,-0.80
2019-03-26T01:06:16.401Z,-0.78
2019-03-26T01:07:16.703Z,-0.82
2019-03-26T01:08:17.007Z,-0.81
2019-03-26T01:09:16.301Z,-0.81
2019-03-26T01:10:16.609Z,-0.81
2019-03-26T01:11:16.667Z,-0.85
2019-03-26T01:12:16.954Z,-0.88
2019-03-26T01:13:16.272Z,-0.88
2019-03-26T01:14:16.579Z,-0.85
2019-03-26T01:15:16.866Z,-0.85
2019-03-26T01:16:17.272Z,-0.90
2019-03-26T01:17:16.575Z,-0.87
2019-03-26T01:18:16.890Z,-0.87
2019-03-26T01:19:17.178Z,-0.91
2019-03-26T01:20:16.463Z,-0.85
2019-03-26T01:21:16.522Z,-0.90
2019-03-26T01:22:16.798Z,-0.90
2019-03-26T01:23:17.119Z,-0.90
2019-03-26T01:24:16.444Z,-0.91
2019-03-26T01:25:16.780Z,-0.92
2019-03-26T01:26:17.094Z,-0.95
2019-03-26T01:27:16.406Z,-0.90
2019-03-26T01:28:16.713Z,-0.94
2019-03-26T01:29:17.042Z,-0.98
2019-03-26T01:30:16.390Z,-1.00
2019-03-26T01:31:16.407Z,-1.05
2019-03-26T01:32:17.001Z,-1.07
2019-03-26T01:33:16.261Z,-1.07
2019-03-26T01:34:16.566Z,-1.09
2019-03-26T01:35:16.868Z,-1.04
2019-03-26T01:36:17.178Z,-1.04
2019-03-26T01:37:16.469Z,-1.05
2019-03-26T01:38:16.776Z,-1.08
2019-03-26T01:39:17.075Z,-1.04
2019-03-26T01:40:16.360Z,-1.02
2019-03-26T01:41:16.638Z,-1.00
2019-03-26T01:42:16.982Z,-1.04
2019-03-26T01:43:16.281Z,-1.02
2019-03-26T01:44:16.582Z,-0.95
2019-03-26T01:45:16.882Z,-1.00
2019-03-26T01:46:17.347Z,-0.98
2019-03-26T01:47:16.646Z,-1.00
2019-03-26T01:48:16.943Z,-1.01
2019-03-26T01:49:16.240Z,-1.07
2019-03-26T01:50:16.578Z,-1.14
2019-03-26T01:51:16.614Z,-1.11
2019-03-26T01:52:16.974Z,-1.04
2019-03-26T01:53:16.256Z,-1.07
2019-03-26T01:54:16.561Z,-1.07
2019-03-26T01:55:16.919Z,-1.05
2019-03-26T01:56:17.222Z,-1.07
2019-03-26T01:57:16.520Z,-1.18
2019-03-26T01:58:16.806Z,-1.19
2019-03-26T01:59:17.102Z,-1.21
2019-03-26T02:00:16.385Z,-1.21
2019-03-26T02:01:16.449Z,-1.18
2019-03-26T02:02:16.768Z,-1.17
2019-03-26T02:03:17.096Z,-1.15
2019-03-26T02:04:16.408Z,-1.18
2019-03-26T02:05:16.713Z,-1.15
2019-03-26T02:06:17.060Z,-1.14
2019-03-26T02:07:16.354Z,-1.15
2019-03-26T02:08:16.614Z,-1.15
2019-03-26T02:09:16.932Z,-1.15
2019-03-26T02:10:16.252Z,-1.19
2019-03-26T02:11:16.270Z,-1.18
2019-03-26T02:12:16.529Z,-1.09
2019-03-26T02:13:16.841Z,-1.09
2019-03-26T02:14:17.104Z,-1.07
2019-03-26T02:15:16.427Z,-1.05
2019-03-26T02:16:16.717Z,-1.02
2019-03-26T02:17:17.035Z,-1.01
2019-03-26T02:18:16.328Z,-1.01
2019-03-26T02:19:16.616Z,-1.00
2019-03-26T02:20:16.925Z,-1.04
2019-03-26T02:21:16.950Z,-1.09
2019-03-26T02:22:16.254Z,-1.09
2019-03-26T02:23:16.572Z,-1.14
2019-03-26T02:24:16.875Z,-1.12
2019-03-26T02:25:16.267Z,-1.11
2019-03-26T02:26:16.723Z,-1.11
2019-03-26T02:27:17.047Z,-1.07
2019-03-26T02:28:16.386Z,-1.00
2019-03-26T02:29:16.683Z,-1.04
2019-03-26T02:30:17.010Z,-1.04
2019-03-26T02:31:17.053Z,-1.18
2019-03-26T02:32:16.351Z,-1.18
2019-03-26T02:33:16.642Z,-1.21
2019-03-26T02:34:16.974Z,-1.17
2019-03-26T02:35:18.052Z,-1.17
2019-03-26T02:36:16.650Z,-1.17
2019-03-26T02:37:16.953Z,-1.08
2019-03-26T02:38:16.267Z,-1.11
2019-03-26T02:39:16.611Z,-1.05
2019-03-26T02:40:16.894Z,-1.11
2019-03-26T02:41:16.913Z,-1.12
2019-03-26T02:42:16.229Z,-1.12
2019-03-26T02:43:16.551Z,-1.11
2019-03-26T02:44:16.852Z,-1.02
2019-03-26T02:45:17.186Z,-1.01
2019-03-26T02:46:16.524Z,-1.01
2019-03-26T02:47:16.883Z,-1.01
2019-03-26T02:48:17.222Z,-0.94
2019-03-26T02:49:16.525Z,-0.88
2019-03-26T02:50:16.850Z,-0.85
2019-03-26T02:51:16.907Z,-0.87
2019-03-26T02:52:17.244Z,-0.87
2019-03-26T02:53:16.539Z,-0.85
2019-03-26T02:54:16.851Z,-0.82
2019-03-26T02:55:17.164Z,-0.74
2019-03-26T02:56:16.468Z,-0.76
2019-03-26T02:57:16.779Z,-0.69
2019-03-26T02:58:17.089Z,-0.71
2019-03-26T02:59:16.397Z,-0.71
2019-03-26T03:00:16.731Z,-0.69
2019-03-26T03:01:16.716Z,-0.70
2019-03-26T03:02:17.050Z,-0.67
2019-03-26T03:03:16.386Z,-0.66
2019-03-26T03:04:16.723Z,-0.61
2019-03-26T03:05:33.758Z,-0.63
2019-03-26T03:06:16.301Z,-0.59
2019-03-26T03:07:16.616Z,-0.54
2019-03-26T03:08:16.916Z,-0.53
2019-03-26T03:09:16.241Z,-0.53
2019-03-26T03:10:16.538Z,-0.53
2019-03-26T03:11:16.584Z,-0.53
2019-03-26T03:12:16.899Z,-0.50
2019-03-26T03:13:17.190Z,-0.50
2019-03-26T03:14:16.508Z,-0.47
2019-03-26T03:15:16.864Z,-0.49
2019-03-26T03:16:17.188Z,-0.43
2019-03-26T03:17:16.501Z,-0.39
2019-03-26T03:18:16.813Z,-0.41
2019-03-26T03:19:17.112Z,-0.38
2019-03-26T03:20:16.442Z,-0.28
2019-03-26T03:21:16.493Z,-0.25
2019-03-26T03:22:16.841Z,-0.25
2019-03-26T03:23:17.152Z,-0.28
2019-03-26T03:24:16.541Z,-0.32
2019-03-26T03:25:16.834Z,-0.33
2019-03-26T03:26:17.124Z,-0.29
2019-03-26T03:27:16.422Z,-0.26
2019-03-26T03:28:16.754Z,-0.21
2019-03-26T03:29:17.066Z,-0.17
2019-03-26T03:30:16.389Z,-0.11
2019-03-26T03:31:16.415Z,-0.10
2019-03-26T03:32:16.735Z,-0.10
2019-03-26T03:33:17.063Z,0.05
2019-03-26T03:34:16.398Z,0.06
2019-03-26T03:35:17.025Z,0.22
2019-03-26T03:36:16.474Z,0.54
2019-03-26T03:37:16.869Z,0.50
2019-03-26T03:38:16.276Z,0.47
2019-03-26T03:39:16.682Z,0.40
2019-03-26T03:40:17.076Z,0.38
2019-03-26T03:41:17.113Z,0.43
2019-03-26T03:42:16.539Z,0.43
2019-03-26T03:43:16.956Z,0.54
2019-03-26T03:44:16.368Z,0.53
2019-03-26T03:45:16.786Z,0.53
2019-03-26T03:46:17.188Z,0.71
2019-03-26T03:47:16.591Z,0.69
2019-03-26T03:48:17.001Z,0.65
2019-03-26T03:49:16.408Z,0.67
2019-03-26T03:50:16.824Z,0.67
2019-03-26T03:51:16.879Z,0.68
2019-03-26T03:52:16.288Z,0.68
2019-03-26T03:53:16.696Z,0.63
2019-03-26T03:54:17.119Z,0.63
2019-03-26T03:55:16.522Z,0.61
2019-03-26T03:56:16.932Z,0.61
2019-03-26T03:57:16.342Z,0.61
2019-03-26T03:58:16.743Z,0.69
2019-03-26T03:59:17.143Z,0.72
2019-03-26T04:00:16.568Z,0.71
2019-03-26T04:01:16.618Z,0.74
2019-03-26T04:02:17.042Z,0.75
2019-03-26T04:03:16.466Z,0.78
2019-03-26T04:04:16.866Z,0.76
2019-03-26T04:05:16.252Z,0.75
2019-03-26T04:06:16.618Z,0.79
2019-03-26T04:07:16.958Z,0.76
2019-03-26T04:08:16.267Z,0.81
2019-03-26T04:09:16.534Z,0.78
2019-03-26T04:10:16.853Z,0.76
2019-03-26T04:11:16.891Z,0.76
2019-03-26T04:12:17.198Z,0.79
2019-03-26T04:13:16.514Z,0.79
2019-03-26T04:14:16.806Z,0.76
2019-03-26T04:15:17.127Z,0.75
2019-03-26T04:16:16.450Z,0.74
2019-03-26T04:17:16.755Z,0.69
2019-03-26T04:18:17.057Z,0.71
2019-03-26T04:19:16.369Z,0.75
2019-03-26T04:20:16.691Z,0.71
2019-03-26T04:21:16.739Z,0.69
2019-03-26T04:22:17.047Z,0.64
2019-03-26T04:23:16.403Z,0.63
2019-03-26T04:24:16.678Z,0.61
2019-03-26T04:25:17.043Z,0.57
2019-03-26T04:26:16.336Z,0.54
2019-03-26T04:27:16.666Z,0.55
2019-03-26T04:28:16.998Z,0.54
2019-03-26T04:29:16.305Z,0.53
2019-03-26T04:30:16.594Z,0.55
2019-03-26T04:31:16.670Z,0.54
2019-03-26T04:32:17.048Z,0.57
2019-03-26T04:33:16.360Z,0.60
2019-03-26T04:34:16.691Z,0.48
2019-03-26T04:35:16.995Z,0.54
2019-03-26T04:36:25.109Z,0.53
2019-03-26T04:37:16.927Z,0.53
2019-03-26T04:38:16.288Z,0.53
2019-03-26T04:39:16.583Z,0.54
2019-03-26T04:40:16.877Z,0.53
2019-03-26T04:41:16.923Z,0.48
2019-03-26T04:42:16.204Z,0.44
2019-03-26T04:43:18.936Z,0.47
2019-03-26T04:44:16.508Z,0.41
2019-03-26T04:45:16.833Z,0.44
2019-03-26T04:46:17.126Z,0.44
2019-03-26T04:47:16.452Z,0.45
2019-03-26T04:48:16.783Z,0.44
2019-03-26T04:49:17.085Z,0.47
2019-03-26T04:50:16.441Z,0.48
2019-03-26T04:51:16.431Z,0.50
2019-03-26T04:52:16.914Z,0.47
2019-03-26T04:57:16.778Z,0.50
2019-03-26T04:58:17.167Z,0.51
2019-03-26T04:59:16.588Z,0.51
2019-03-26T05:00:16.991Z,0.53
2019-03-26T05:01:17.028Z,0.50
2019-03-26T05:02:16.436Z,0.51
2019-03-26T05:03:16.841Z,0.53
2019-03-26T05:04:17.245Z,0.50
2019-03-26T05:05:16.643Z,0.53
2019-03-26T05:06:17.048Z,0.53
2019-03-26T05:07:16.480Z,0.54
2019-03-26T05:08:16.871Z,0.57
2019-03-26T05:09:16.281Z,0.60
2019-03-26T05:10:16.691Z,0.58
2019-03-26T05:11:16.738Z,0.57
2019-03-26T05:12:17.208Z,0.60
2019-03-26T05:13:16.611Z,0.55
2019-03-26T05:14:16.991Z,0.57
2019-03-26T05:15:16.391Z,0.57
2019-03-26T05:16:16.792Z,0.57
2019-03-26T05:17:17.193Z,0.58
2019-03-26T05:18:16.602Z,0.58
2019-03-26T05:19:17.008Z,0.60
2019-03-26T05:20:16.402Z,0.64
2019-03-26T05:21:16.468Z,0.63
2019-03-26T05:22:23.817Z,0.61
2019-03-26T05:23:16.963Z,0.63
2019-03-26T05:24:16.366Z,0.61
2019-03-26T05:25:16.779Z,0.64
2019-03-26T05:26:17.180Z,0.65
2019-03-26T05:27:16.586Z,0.63
2019-03-26T05:28:16.980Z,0.61
2019-03-26T05:29:16.391Z,0.63
2019-03-26T05:30:16.794Z,0.61
2019-03-26T05:31:16.816Z,0.61
2019-03-26T05:32:18.057Z,0.63
2019-03-26T05:33:16.457Z,0.65
2019-03-26T05:34:16.867Z,0.63
2019-03-26T05:35:16.321Z,0.65
2019-03-26T05:36:16.741Z,0.65
2019-03-26T05:37:17.139Z,0.65
2019-03-26T05:38:16.545Z,0.64
2019-03-26T05:39:16.943Z,0.65
2019-03-26T05:40:16.360Z,0.67
2019-03-26T05:41:16.386Z,0.68
2019-03-26T05:42:16.785Z,0.71
2019-03-26T05:43:17.179Z,0.71
2019-03-26T05:44:16.582Z,0.68
2019-03-26T05:45:16.983Z,0.69
2019-03-26T05:46:16.378Z,0.68
2019-03-26T05:47:16.785Z,0.68
2019-03-26T05:48:17.184Z,0.71
2019-03-26T05:49:16.579Z,0.68
2019-03-26T05:50:16.991Z,0.65
2019-03-26T05:51:17.029Z,0.67
2019-03-26T05:52:16.434Z,0.63
2019-03-26T05:53:16.836Z,0.65
2019-03-26T05:54:17.240Z,0.69
2019-03-26T05:55:16.637Z,0.74
2019-03-26T05:56:17.033Z,0.74
2019-03-26T05:57:16.454Z,0.78
2019-03-26T05:58:16.842Z,0.81
2019-03-26T05:59:16.303Z,0.83
2019-03-26T06:00:16.719Z,0.86
2019-03-26T06:01:16.768Z,0.85
2019-03-26T06:02:18.068Z,0.89
2019-03-26T06:03:16.675Z,0.91
2019-03-26T06:04:17.075Z,0.96
2019-03-26T06:05:16.482Z,0.95
2019-03-26T06:06:16.885Z,1.00
2019-03-26T06:07:16.292Z,1.02
2019-03-26T06:08:16.699Z,1.04
2019-03-26T06:09:17.097Z,1.03
2019-03-26T06:10:16.582Z,1.00
2019-03-26T06:11:16.633Z,1.00
2019-03-26T06:12:17.026Z,1.04
2019-03-26T06:13:16.425Z,1.06
2019-03-26T06:14:16.824Z,1.04
2019-03-26T06:15:17.254Z,1.04
2019-03-26T06:16:16.654Z,1.10
2019-03-26T06:17:17.047Z,1.15
2019-03-26T06:18:16.434Z,1.22
2019-03-26T06:19:16.835Z,1.24
2019-03-26T06:20:17.235Z,1.22
2019-03-26T06:21:16.287Z,1.24
2019-03-26T06:22:16.679Z,1.24
2019-03-26T06:23:17.072Z,1.24
2019-03-26T06:24:16.470Z,1.23
2019-03-26T06:25:16.871Z,1.26
2019-03-26T06:26:16.282Z,1.26
2019-03-26T06:27:16.702Z,1.34
2019-03-26T06:28:17.095Z,1.36
2019-03-26T06:29:16.507Z,1.43
2019-03-26T06:30:16.926Z,1.43
2019-03-26T06:31:16.970Z,1.44
2019-03-26T06:32:16.371Z,1.47
2019-03-26T06:33:16.766Z,1.47
2019-03-26T06:34:17.162Z,1.54
2019-03-26T06:35:16.651Z,1.54
2019-03-26T06:36:17.081Z,1.57
2019-03-26T06:37:17.960Z,1.60
2019-03-26T06:38:16.815Z,1.53
2019-03-26T06:39:17.218Z,1.50
2019-03-26T06:40:16.631Z,1.44
2019-03-26T06:41:16.664Z,1.39
2019-03-26T06:42:17.054Z,1.48
2019-03-26T06:43:16.445Z,1.51
2019-03-26T06:44:16.854Z,1.51
2019-03-26T06:45:17.277Z,1.57
2019-03-26T06:46:16.672Z,1.57
2019-03-26T06:47:17.070Z,1.58
2019-03-26T06:48:16.479Z,1.62
2019-03-26T06:49:16.886Z,1.67
2019-03-26T06:50:16.284Z,1.68
2019-03-26T06:51:16.338Z,1.81
2019-03-26T06:52:16.738Z,1.78
2019-03-26T06:53:17.142Z,1.85
2019-03-26T06:54:16.558Z,1.99
2019-03-26T06:55:16.986Z,2.06
2019-03-26T06:56:16.382Z,2.23
2019-03-26T06:57:16.798Z,2.30
2019-03-26T06:58:17.210Z,2.37
2019-03-26T06:59:16.610Z,2.38
2019-03-26T07:00:16.401Z,2.33
2019-03-26T07:01:16.454Z,2.48
2019-03-26T07:02:16.849Z,2.55
2019-03-26T07:03:17.244Z,2.69
2019-03-26T07:04:16.644Z,2.71
2019-03-26T07:05:17.040Z,2.74
2019-03-26T07:06:16.439Z,2.75
2019-03-26T07:07:16.842Z,2.84
2019-03-26T07:08:17.255Z,2.92
2019-03-26T07:09:16.663Z,3.02
2019-03-26T07:10:17.073Z,3.06
2019-03-26T07:11:17.107Z,3.06
2019-03-26T07:12:16.507Z,3.07
2019-03-26T07:13:16.907Z,3.07
2019-03-26T07:14:16.302Z,3.16
2019-03-26T07:15:16.724Z,3.27
2019-03-26T07:16:17.135Z,3.20
2019-03-26T07:17:16.537Z,3.26
2019-03-26T07:18:16.910Z,3.33
2019-03-26T07:19:16.248Z,3.24
2019-03-26T07:20:16.577Z,3.33
2019-03-26T07:21:16.641Z,3.46
2019-03-26T07:22:16.991Z,3.49
2019-03-26T07:23:16.309Z,3.40
2019-03-26T07:24:16.641Z,3.37
2019-03-26T07:25:16.962Z,3.55
2019-03-26T07:26:16.278Z,3.62
2019-03-26T07:27:16.610Z,3.72
2019-03-26T07:28:16.912Z,3.71
2019-03-26T07:29:17.219Z,3.75
2019-03-26T07:30:16.556Z,3.79
2019-03-26T07:31:16.588Z,3.78
2019-03-26T07:32:16.902Z,3.68
2019-03-26T07:33:16.326Z,3.74
2019-03-26T07:34:16.630Z,3.79
2019-03-26T07:35:16.940Z,3.89
2019-03-26T07:36:16.254Z,3.79
2019-03-26T07:37:16.565Z,3.65
2019-03-26T07:38:16.882Z,3.62
2019-03-26T07:39:17.194Z,3.67
2019-03-26T07:40:16.513Z,3.65
2019-03-26T07:41:16.552Z,3.74
2019-03-26T07:42:16.886Z,3.79
2019-03-26T07:43:17.207Z,3.77
2019-03-26T07:44:16.489Z,3.82
2019-03-26T07:45:16.801Z,3.90
2019-03-26T07:46:17.107Z,3.92
2019-03-26T07:47:16.447Z,3.92
2019-03-26T07:48:16.742Z,3.81
2019-03-26T07:49:17.034Z,3.88
2019-03-26T07:50:16.341Z,3.88
2019-03-26T07:51:16.429Z,3.90
2019-03-26T07:52:16.720Z,3.95
2019-03-26T07:53:16.996Z,3.96
2019-03-26T07:54:16.297Z,3.95
2019-03-26T07:55:16.594Z,3.99
2019-03-26T07:56:16.872Z,4.02
2019-03-26T07:57:17.215Z,4.16
2019-03-26T07:58:16.525Z,4.16
2019-03-26T07:59:16.865Z,4.26
2019-03-26T08:00:17.190Z,4.28
2019-03-26T08:01:17.197Z,4.30
2019-03-26T08:02:16.505Z,4.38
2019-03-26T08:03:16.795Z,4.41
2019-03-26T08:04:17.099Z,4.43
2019-03-26T08:05:29.015Z,4.43
2019-03-26T08:06:16.330Z,4.51
2019-03-26T08:07:16.641Z,4.60
2019-03-26T08:08:16.983Z,4.72
2019-03-26T08:09:16.365Z,4.72
2019-03-26T08:10:16.719Z,4.84
2019-03-26T08:11:16.766Z,5.00
2019-03-26T08:12:17.038Z,4.95
2019-03-26T08:13:16.331Z,4.91
2019-03-26T08:14:16.672Z,4.85
2019-03-26T08:15:20.098Z,5.05
2019-03-26T08:16:16.704Z,5.23
2019-03-26T08:17:17.043Z,5.31
2019-03-26T08:18:16.409Z,5.38
2019-03-26T08:19:16.721Z,5.40
2019-03-26T08:20:17.055Z,5.54
2019-03-26T08:21:17.091Z,5.64
2019-03-26T08:22:16.394Z,5.33
2019-03-26T08:23:16.695Z,5.35
2019-03-26T08:24:16.996Z,5.40
2019-03-26T08:25:16.281Z,5.27
2019-03-26T08:26:16.571Z,5.26
2019-03-26T08:27:16.868Z,5.19
2019-03-26T08:28:17.162Z,5.12
2019-03-26T08:29:16.474Z,5.22
2019-03-26T08:30:16.792Z,5.35
2019-03-26T08:31:16.835Z,5.28
2019-03-26T08:32:17.119Z,5.41
2019-03-26T08:33:16.402Z,5.41
2019-03-26T08:34:16.699Z,5.41
2019-03-26T08:35:17.026Z,5.30
2019-03-26T08:36:16.350Z,5.45
2019-03-26T08:37:16.612Z,5.70
2019-03-26T08:38:16.877Z,5.62
2019-03-26T08:39:17.204Z,5.54
2019-03-26T08:40:16.513Z,5.45
2019-03-26T08:41:16.559Z,5.57
2019-03-26T08:42:16.849Z,5.75
2019-03-26T08:43:17.166Z,5.82
2019-03-26T08:44:16.471Z,5.61
2019-03-26T08:45:16.808Z,5.58
2019-03-26T08:46:17.221Z,5.61
2019-03-26T08:47:16.613Z,5.57
2019-03-26T08:48:17.018Z,5.48
2019-03-26T08:49:16.427Z,5.58
2019-03-26T08:50:16.839Z,5.68
2019-03-26T08:51:16.892Z,5.75
2019-03-26T08:52:16.287Z,5.61
2019-03-26T08:53:16.684Z,5.52
2019-03-26T08:54:17.080Z,5.54
2019-03-26T08:55:16.471Z,5.61
2019-03-26T08:56:16.875Z,5.51
2019-03-26T08:57:16.292Z,5.54
2019-03-26T08:58:16.701Z,5.28
2019-03-26T08:59:17.122Z,5.38
2019-03-26T09:00:16.549Z,5.48
2019-03-26T09:01:16.578Z,5.71
2019-03-26T09:02:16.971Z,5.67
2019-03-26T09:03:16.369Z,5.71
2019-03-26T09:04:16.774Z,5.68
2019-03-26T09:05:17.193Z,5.57
2019-03-26T09:06:16.604Z,5.55
2019-03-26T09:07:17.001Z,5.84
2019-03-26T09:08:25.041Z,5.98
2019-03-26T09:09:17.217Z,5.89
2019-03-26T09:10:16.644Z,5.89
2019-03-26T09:11:16.669Z,5.86
2019-03-26T09:12:17.065Z,5.78
2019-03-26T09:13:16.468Z,5.84
2019-03-26T09:14:16.871Z,5.98
2019-03-26T09:15:16.274Z,6.00
2019-03-26T09:16:16.671Z,5.79
2019-03-26T09:17:19.647Z,5.81
2019-03-26T09:18:16.454Z,5.77
2019-03-26T09:19:16.848Z,5.85
2019-03-26T09:20:17.253Z,5.72
2019-03-26T09:21:16.302Z,5.79
2019-03-26T09:22:16.704Z,5.70
2019-03-26T09:23:17.103Z,5.70
2019-03-26T09:24:16.513Z,5.70
2019-03-26T09:25:16.915Z,5.70
2019-03-26T09:26:16.318Z,5.93
2019-03-26T09:27:16.716Z,6.03
2019-03-26T09:28:17.111Z,6.03
2019-03-26T09:29:16.505Z,5.99
2019-03-26T09:30:16.932Z,6.05
2019-03-26T09:31:16.983Z,6.20
2019-03-26T09:32:16.382Z,5.91
2019-03-26T09:33:16.773Z,5.98
2019-03-26T09:34:17.178Z,5.91
2019-03-26T09:35:16.570Z,5.95
2019-03-26T09:36:17.010Z,6.09
2019-03-26T09:37:16.428Z,6.09
2019-03-26T09:38:16.872Z,6.08
2019-03-26T09:39:16.268Z,6.16
2019-03-26T09:40:16.676Z,6.17
2019-03-26T09:41:16.725Z,6.20
2019-03-26T09:42:17.124Z,6.13
2019-03-26T09:43:16.522Z,6.23
2019-03-26T09:44:16.918Z,6.51
2019-03-26T09:45:16.336Z,6.48
2019-03-26T09:46:16.735Z,6.48
2019-03-26T09:47:17.138Z,6.27
2019-03-26T09:48:16.548Z,6.27
2019-03-26T09:49:16.944Z,6.08
2019-03-26T09:50:16.348Z,6.06
2019-03-26T09:51:16.411Z,5.98
2019-03-26T09:52:16.819Z,6.03
2019-03-26T09:53:17.220Z,6.19
2019-03-26T09:54:16.615Z,6.17
2019-03-26T09:55:17.127Z,5.93
2019-03-26T09:56:27.900Z,5.81
2019-03-26T09:57:16.331Z,5.93
2019-03-26T09:58:16.742Z,5.98
2019-03-26T09:59:17.158Z,6.12
2019-03-26T10:00:16.559Z,6.16
2019-03-26T10:01:16.615Z,6.00
2019-03-26T10:02:17.023Z,5.85
2019-03-26T10:03:16.447Z,5.93
2019-03-26T10:04:16.855Z,6.17
2019-03-26T10:05:17.283Z,6.21
2019-03-26T10:06:23.021Z,6.27
2019-03-26T10:07:21.600Z,6.29
2019-03-26T10:08:17.746Z,6.33
2019-03-26T10:09:16.427Z,6.29
2019-03-26T10:10:16.829Z,6.08
2019-03-26T10:11:16.881Z,6.02
2019-03-26T10:12:16.281Z,6.13
2019-03-26T10:13:16.689Z,5.98
2019-03-26T10:14:17.084Z,6.00
2019-03-26T10:15:16.494Z,6.20
2019-03-26T10:16:16.895Z,6.21
2019-03-26T10:17:16.298Z,6.13
2019-03-26T10:18:16.697Z,6.12
2019-03-26T10:19:17.230Z,6.17
2019-03-26T10:20:16.718Z,6.16
2019-03-26T10:21:16.786Z,6.31
2019-03-26T10:22:19.887Z,6.45
2019-03-26T10:23:16.599Z,6.63
2019-03-26T10:24:16.991Z,6.63
2019-03-26T10:25:16.393Z,6.74
2019-03-26T10:26:16.801Z,6.74
2019-03-26T10:27:17.209Z,6.94
2019-03-26T10:28:16.592Z,6.58
2019-03-26T10:29:29.389Z,6.58
2019-03-26T10:30:16.451Z,6.51
2019-03-26T10:31:16.500Z,6.64
2019-03-26T10:32:16.898Z,7.00
2019-03-26T10:33:16.304Z,7.17
2019-03-26T10:34:16.702Z,7.09
2019-03-26T10:35:17.107Z,7.12
2019-03-26T10:36:16.528Z,6.91
2019-03-26T10:37:16.941Z,7.03
2019-03-26T10:38:16.345Z,7.05
2019-03-26T10:39:16.748Z,7.07
2019-03-26T10:40:17.159Z,6.94
2019-03-26T10:41:18.630Z,7.05
2019-03-26T10:42:17.184Z,7.05
2019-03-26T10:43:16.596Z,6.79
2019-03-26T10:44:16.995Z,6.96
2019-03-26T10:45:16.394Z,6.94
2019-03-26T10:46:16.806Z,6.72
2019-03-26T10:47:17.220Z,6.67
2019-03-26T10:48:16.622Z,6.86
2019-03-26T10:49:17.025Z,6.59
2019-03-26T10:50:16.438Z,6.74
2019-03-26T10:51:16.479Z,6.54
2019-03-26T10:52:16.869Z,6.64
2019-03-26T10:53:16.263Z,6.64
2019-03-26T10:54:16.666Z,6.58
2019-03-26T10:55:17.076Z,6.71
2019-03-26T10:56:16.479Z,6.68
2019-03-26T10:57:16.871Z,6.57
2019-03-26T10:58:16.268Z,6.58
2019-03-26T10:59:16.670Z,6.59
2019-03-26T11:00:17.082Z,6.65
2019-03-26T11:01:17.240Z,6.78
2019-03-26T11:02:16.636Z,6.57
2019-03-26T11:03:17.039Z,6.63
2019-03-26T11:04:16.439Z,6.55
2019-03-26T11:05:16.838Z,6.67
2019-03-26T11:06:17.238Z,6.71
2019-03-26T11:07:16.639Z,6.49
2019-03-26T11:08:17.039Z,6.34
2019-03-26T11:09:23.219Z,6.34
2019-03-26T11:10:16.583Z,6.38
2019-03-26T11:11:16.639Z,6.34
2019-03-26T11:12:17.086Z,6.45
2019-03-26T11:13:16.491Z,6.47
2019-03-26T11:14:16.892Z,6.48
2019-03-26T11:15:16.300Z,6.41
2019-03-26T11:16:16.694Z,6.47
2019-03-26T11:17:17.099Z,6.31
2019-03-26T11:18:16.490Z,6.51
2019-03-26T11:19:16.893Z,6.43
2019-03-26T11:20:16.318Z,6.47
2019-03-26T11:21:16.369Z,6.68
2019-03-26T11:22:16.762Z,6.74
2019-03-26T11:23:17.166Z,6.64
2019-03-26T11:24:16.571Z,6.74
2019-03-26T11:25:16.994Z,6.89
2019-03-26T11:26:16.414Z,6.63
2019-03-26T11:27:16.808Z,6.68
2019-03-26T11:28:17.205Z,6.52
2019-03-26T11:29:16.596Z,6.69
2019-03-26T11:30:17.016Z,6.67
2019-03-26T11:31:17.050Z,6.78
2019-03-26T11:32:16.459Z,6.85
2019-03-26T11:33:16.859Z,6.82
2019-03-26T11:34:17.264Z,6.72
2019-03-26T11:35:16.665Z,6.78
2019-03-26T11:36:17.068Z,6.58
2019-03-26T11:37:16.473Z,6.71
2019-03-26T11:38:18.460Z,6.75
2019-03-26T11:39:17.099Z,7.00
2019-03-26T11:40:16.513Z,7.15
2019-03-26T11:41:16.561Z,6.84
2019-03-26T11:42:17.024Z,6.85
2019-03-26T11:43:16.419Z,6.69
2019-03-26T11:44:16.850Z,6.72
2019-03-26T11:45:17.296Z,6.67
2019-03-26T11:46:16.707Z,6.59
2019-03-26T11:47:17.120Z,6.63
2019-03-26T11:48:16.514Z,6.72
2019-03-26T11:49:16.924Z,6.55
2019-03-26T11:50:16.321Z,6.49
2019-03-26T11:51:16.376Z,6.68
2019-03-26T11:52:16.767Z,6.69
2019-03-26T11:53:17.163Z,6.78
2019-03-26T11:54:16.560Z,6.76
2019-03-26T11:55:16.983Z,6.69
2019-03-26T11:56:16.396Z,6.55
2019-03-26T11:57:16.796Z,6.47
2019-03-26T11:58:29.397Z,6.57
2019-03-26T11:59:16.636Z,6.58
2019-03-26T12:00:17.087Z,6.55
2019-03-26T12:01:17.114Z,6.67
2019-03-26T12:02:16.549Z,6.72
2019-03-26T12:03:17.001Z,6.75
2019-03-26T12:04:16.417Z,6.81
2019-03-26T12:05:16.812Z,6.92
2019-03-26T12:06:17.204Z,7.05
2019-03-26T12:07:16.593Z,7.05
2019-03-26T12:08:16.990Z,7.40
2019-03-26T12:09:16.404Z,7.34
2019-03-26T12:10:16.824Z,7.26
2019-03-26T12:11:16.857Z,7.43
2019-03-26T12:12:17.268Z,7.53
2019-03-26T12:13:16.669Z,7.37
2019-03-26T12:14:17.069Z,7.13
2019-03-26T12:15:16.473Z,7.13
2019-03-26T12:16:16.875Z,6.94
2019-03-26T12:17:16.273Z,7.05
2019-03-26T12:18:16.668Z,7.16
2019-03-26T12:19:17.133Z,7.20
2019-03-26T12:20:16.558Z,7.00
2019-03-26T12:21:16.604Z,6.99
2019-03-26T12:22:17.006Z,7.05
2019-03-26T12:23:16.401Z,6.51
2019-03-26T12:24:16.823Z,6.79
2019-03-26T12:25:17.245Z,6.55
2019-03-26T12:26:16.645Z,6.75
2019-03-26T12:27:17.038Z,6.44
2019-03-26T12:28:16.426Z,6.59
2019-03-26T12:29:16.832Z,6.91
2019-03-26T12:30:17.245Z,6.81
2019-03-26T12:31:16.283Z,6.82
2019-03-26T12:32:16.681Z,6.89
2019-03-26T12:33:17.080Z,7.02
2019-03-26T12:34:16.479Z,7.06
2019-03-26T12:35:16.879Z,6.98
2019-03-26T12:36:16.277Z,7.06
2019-03-26T12:37:16.681Z,7.17
2019-03-26T12:38:17.080Z,7.02
2019-03-26T12:39:16.488Z,6.92
2019-03-26T12:40:16.914Z,6.69
2019-03-26T12:41:16.357Z,6.57
2019-03-26T12:42:16.803Z,6.85
2019-03-26T12:43:17.199Z,6.72
2019-03-26T12:44:16.597Z,6.72
2019-03-26T12:45:16.986Z,6.69
2019-03-26T12:46:16.371Z,6.69
2019-03-26T12:47:16.762Z,6.89
2019-03-26T12:48:17.154Z,6.76
2019-03-26T12:49:16.571Z,6.76
2019-03-26T12:50:16.974Z,6.69
2019-03-26T12:51:17.020Z,6.85
2019-03-26T12:52:16.431Z,6.67
2019-03-26T12:53:16.833Z,6.65
2019-03-26T12:54:17.220Z,6.71
2019-03-26T12:55:16.626Z,6.86
2019-03-26T12:56:17.022Z,6.94
2019-03-26T12:57:16.421Z,6.96
2019-03-26T12:58:16.824Z,6.86
2019-03-26T12:59:17.225Z,6.86
2019-03-26T13:00:17.011Z,6.78
2019-03-26T13:01:17.059Z,6.67
2019-03-26T13:02:16.493Z,6.86
2019-03-26T13:03:16.894Z,7.00
2019-03-26T13:04:16.886Z,6.95
2019-03-26T13:05:16.363Z,6.78
2019-03-26T13:06:16.764Z,6.82
2019-03-26T13:07:17.157Z,6.85
2019-03-26T13:08:16.590Z,6.91
2019-03-26T13:09:16.991Z,6.91
2019-03-26T13:10:16.413Z,6.81
2019-03-26T13:11:17.191Z,6.95
2019-03-26T13:12:16.799Z,6.71
2019-03-26T13:13:17.201Z,6.71
2019-03-26T13:14:16.596Z,6.91
2019-03-26T13:15:16.992Z,6.82